createdAt,value
2023-04-02T00:00:54.037Z,980.87
2023-04-02T00:01:54.025Z,980.88
2023-04-02T00:02:54.126Z,980.86
2023-04-02T00:03:54.273Z,980.90
2023-04-02T00:04:54.030Z,980.91
2023-04-02T00:05:53.972Z,980.93
2023-04-02T00:06:53.982Z,980.90
2023-04-02T00:07:53.974Z,980.90
2023-04-02T00:08:53.964Z,980.95
2023-04-02T00:09:54.000Z,980.93
2023-04-02T00:10:53.925Z,981.01
2023-04-02T00:11:53.912Z,981.01
2023-04-02T00:12:53.910Z,980.99
2023-04-02T00:13:53.887Z,981.00
2023-04-02T00:14:53.906Z,981.01
2023-04-02T00:15:53.912Z,980.99
2023-04-02T00:16:53.891Z,981.04
2023-04-02T00:17:53.890Z,981.07
2023-04-02T00:18:53.890Z,981.05
2023-04-02T00:19:53.886Z,981.06
2023-04-02T00:20:53.850Z,981.06
2023-04-02T00:21:53.816Z,981.07
2023-04-02T00:22:53.845Z,981.06
2023-04-02T00:23:53.781Z,981.10
2023-04-02T00:24:53.808Z,981.15
2023-04-02T00:25:53.806Z,981.09
2023-04-02T00:26:53.800Z,981.09
2023-04-02T00:27:53.740Z,981.13
2023-04-02T00:28:53.776Z,981.13
2023-04-02T00:29:53.726Z,981.17
2023-04-02T00:30:53.738Z,981.16
2023-04-02T00:31:53.805Z,981.17
2023-04-02T00:32:53.742Z,981.15
2023-04-02T00:33:53.688Z,981.23
2023-04-02T00:34:53.721Z,981.16
2023-04-02T00:35:53.713Z,981.18
2023-04-02T00:36:53.670Z,981.25
2023-04-02T00:37:53.670Z,981.27
2023-04-02T00:38:53.667Z,981.24
2023-04-02T00:39:53.623Z,981.26
2023-04-02T00:40:53.654Z,981.26
2023-04-02T00:41:53.665Z,981.28
2023-04-02T00:42:53.600Z,981.31
2023-04-02T00:43:53.578Z,981.29
2023-04-02T00:44:53.583Z,981.35
2023-04-02T00:45:53.567Z,981.35
2023-04-02T00:46:53.588Z,981.33
2023-04-02T00:47:53.624Z,981.35
2023-04-02T00:48:53.535Z,981.37
2023-04-02T00:49:53.529Z,981.39
2023-04-02T00:50:53.548Z,981.38
2023-04-02T00:51:53.550Z,981.43
2023-04-02T00:52:53.516Z,981.45
2023-04-02T00:53:53.481Z,981.41
2023-04-02T00:54:53.498Z,981.51
2023-04-02T00:55:53.465Z,981.48
2023-04-02T00:56:53.500Z,981.50
2023-04-02T00:57:53.455Z,981.52
2023-04-02T00:58:53.448Z,981.55
2023-04-02T00:59:53.470Z,981.50
2023-04-02T01:00:53.445Z,981.55
2023-04-02T01:01:53.446Z,981.58
2023-04-02T01:02:53.472Z,981.58
2023-04-02T01:03:53.464Z,981.59
2023-04-02T01:04:53.385Z,981.57
2023-04-02T01:05:53.412Z,981.62
2023-04-02T01:06:53.362Z,981.58
2023-04-02T01:07:53.417Z,981.59
2023-04-02T01:08:53.371Z,981.61
2023-04-02T01:09:53.357Z,981.57
2023-04-02T01:10:53.307Z,981.60
2023-04-02T01:11:53.339Z,981.62
2023-04-02T01:12:53.298Z,981.63
2023-04-02T01:13:53.304Z,981.62
2023-04-02T01:14:53.272Z,981.63
2023-04-02T01:15:53.343Z,981.67
2023-04-02T01:16:53.242Z,981.65
2023-04-02T01:17:53.252Z,981.66
2023-04-02T01:18:53.233Z,981.68
2023-04-02T01:19:53.263Z,981.68
2023-04-02T01:20:53.204Z,981.69
2023-04-02T01:21:53.258Z,981.69
2023-04-02T01:22:53.178Z,981.72
2023-04-02T01:23:53.187Z,981.68
2023-04-02T01:24:53.207Z,981.76
2023-04-02T01:25:53.170Z,981.74
2023-04-02T01:26:53.140Z,981.74
2023-04-02T01:27:53.161Z,981.73
2023-04-02T01:28:53.128Z,981.78
2023-04-02T01:29:53.140Z,981.84
2023-04-02T01:30:53.150Z,981.78
2023-04-02T01:31:53.106Z,981.80
2023-04-02T01:32:53.105Z,981.82
2023-04-02T01:33:53.085Z,981.86
2023-04-02T01:34:53.075Z,981.82
2023-04-02T01:35:53.126Z,981.88
2023-04-02T01:36:53.043Z,981.83
2023-04-02T01:37:53.046Z,981.85
2023-04-02T01:38:53.014Z,981.88
2023-04-02T01:39:53.033Z,981.87
2023-04-02T01:40:52.990Z,981.88
2023-04-02T01:41:53.024Z,981.90
2023-04-02T01:42:52.973Z,981.90
2023-04-02T01:43:53.019Z,981.91
2023-04-02T01:44:53.907Z,981.91
2023-04-02T01:45:52.951Z,981.93
2023-04-02T01:46:52.989Z,981.98
2023-04-02T01:47:52.998Z,981.96
2023-04-02T01:48:52.945Z,982.00
2023-04-02T01:49:52.942Z,982.01
2023-04-02T01:50:52.925Z,982.07
2023-04-02T01:51:52.890Z,982.06
2023-04-02T01:52:52.870Z,982.07
2023-04-02T01:53:52.895Z,982.07
2023-04-02T01:54:52.847Z,982.09
2023-04-02T01:55:52.848Z,982.10
2023-04-02T01:56:52.864Z,982.10
2023-04-02T01:57:52.838Z,982.09
2023-04-02T01:58:52.804Z,982.13
2023-04-02T01:59:52.831Z,982.11
2023-04-02T02:00:52.840Z,982.14
2023-04-02T02:01:52.819Z,982.12
2023-04-02T02:02:52.780Z,982.16
2023-04-02T02:03:52.826Z,982.19
2023-04-02T02:04:52.760Z,982.17
2023-04-02T02:05:52.772Z,982.19
2023-04-02T02:06:52.755Z,982.25
2023-04-02T02:07:52.740Z,982.19
2023-04-02T02:08:52.715Z,982.25
2023-04-02T02:09:52.719Z,982.28
2023-04-02T02:10:52.729Z,982.23
2023-04-02T02:11:52.710Z,982.23
2023-04-02T02:12:52.685Z,982.25
2023-04-02T02:13:52.684Z,982.29
2023-04-02T02:14:52.644Z,982.26
2023-04-02T02:15:52.659Z,982.32
2023-04-02T02:16:52.681Z,982.31
2023-04-02T02:17:52.754Z,982.29
2023-04-02T02:18:52.598Z,982.33
2023-04-02T02:19:52.596Z,982.40
2023-04-02T02:20:52.608Z,982.42
2023-04-02T02:21:52.592Z,982.41
2023-04-02T02:22:52.557Z,982.41
2023-04-02T02:23:52.604Z,982.37
2023-04-02T02:24:52.559Z,982.42
2023-04-02T02:25:52.551Z,982.42
2023-04-02T02:26:52.530Z,982.44
2023-04-02T02:27:52.546Z,982.45
2023-04-02T02:28:52.527Z,982.45
2023-04-02T02:29:52.521Z,982.47
2023-04-02T02:30:52.524Z,982.52
2023-04-02T02:31:52.534Z,982.55
2023-04-02T02:32:52.541Z,982.53
2023-04-02T02:33:52.481Z,982.52
2023-04-02T02:34:52.462Z,982.53
2023-04-02T02:35:52.452Z,982.55
2023-04-02T02:36:52.437Z,982.58
2023-04-02T02:37:52.448Z,982.59
2023-04-02T02:38:54.274Z,982.61
2023-04-02T02:39:52.403Z,982.60
2023-04-02T02:40:52.379Z,982.62
2023-04-02T02:41:52.377Z,982.68
2023-04-02T02:42:52.372Z,982.66
2023-04-02T02:43:52.377Z,982.66
2023-04-02T02:44:52.357Z,982.64
2023-04-02T02:45:52.375Z,982.70
2023-04-02T02:46:52.327Z,982.72
2023-04-02T02:47:52.395Z,982.72
2023-04-02T02:48:52.321Z,982.74
2023-04-02T02:49:52.479Z,982.77
2023-04-02T02:50:52.299Z,982.74
2023-04-02T02:51:52.266Z,982.80
2023-04-02T02:52:52.258Z,982.79
2023-04-02T02:53:52.255Z,982.81
2023-04-02T02:54:52.238Z,982.79
2023-04-02T02:55:52.237Z,982.81
2023-04-02T02:56:52.297Z,982.87
2023-04-02T02:57:52.209Z,982.87
2023-04-02T02:58:52.230Z,982.89
2023-04-02T02:59:52.667Z,982.89
2023-04-02T03:00:52.165Z,982.88
2023-04-02T03:01:52.212Z,982.93
2023-04-02T03:02:52.250Z,982.91
2023-04-02T03:03:52.357Z,982.91
2023-04-02T03:04:52.160Z,982.97
2023-04-02T03:05:52.174Z,982.92
2023-04-02T03:06:52.103Z,982.94
2023-04-02T03:07:52.163Z,982.97
2023-04-02T03:08:52.094Z,982.99
2023-04-02T03:09:52.135Z,983.02
2023-04-02T03:10:52.069Z,983.01
2023-04-02T03:12:48.842Z,983.03
2023-04-02T03:13:48.817Z,983.02
2023-04-02T03:14:48.820Z,983.02
2023-04-02T03:15:48.792Z,983.09
2023-04-02T03:16:48.783Z,983.13
2023-04-02T03:17:48.829Z,983.19
2023-04-02T03:18:48.780Z,983.24
2023-04-02T03:19:48.741Z,983.22
2023-04-02T03:20:48.764Z,983.31
2023-04-02T03:21:48.739Z,983.28
2023-04-02T03:22:48.777Z,983.36
2023-04-02T03:23:48.702Z,983.38
2023-04-02T03:24:48.766Z,983.40
2023-04-02T03:25:48.698Z,983.39
2023-04-02T03:26:48.697Z,983.42
2023-04-02T03:27:48.695Z,983.43
2023-04-02T03:28:48.679Z,983.44
2023-04-02T03:29:48.646Z,983.48
2023-04-02T03:30:48.649Z,983.50
2023-04-02T03:31:48.659Z,983.52
2023-04-02T03:32:48.681Z,983.57
2023-04-02T03:33:48.641Z,983.58
2023-04-02T03:34:48.615Z,983.65
2023-04-02T03:35:48.606Z,983.65
2023-04-02T03:36:48.589Z,983.73
2023-04-02T03:37:48.589Z,983.70
2023-04-02T03:38:48.560Z,983.73
2023-04-02T03:39:48.565Z,983.73
2023-04-02T03:40:48.554Z,983.78
2023-04-02T03:41:48.551Z,983.85
2023-04-02T03:42:48.517Z,983.79
2023-04-02T03:43:48.517Z,983.80
2023-04-02T03:44:48.508Z,983.83
2023-04-02T03:45:48.550Z,983.86
2023-04-02T03:46:48.583Z,983.90
2023-04-02T03:47:48.509Z,983.87
2023-04-02T03:48:48.468Z,983.94
2023-04-02T03:49:48.486Z,983.95
2023-04-02T03:50:48.450Z,983.91
2023-04-02T03:51:48.451Z,983.95
2023-04-02T03:52:48.422Z,983.92
2023-04-02T03:53:48.391Z,983.99
2023-04-02T03:54:53.831Z,983.97
2023-04-02T03:55:49.380Z,984.08
2023-04-02T03:56:48.399Z,984.06
2023-04-02T03:57:48.361Z,984.02
2023-04-02T03:58:48.375Z,984.10
2023-04-02T03:59:48.378Z,984.11
2023-04-02T04:00:48.342Z,984.11
2023-04-02T04:01:48.352Z,984.13
2023-04-02T04:02:48.374Z,984.17
2023-04-02T04:03:48.351Z,984.18
2023-04-02T04:04:48.327Z,984.20
2023-04-02T04:05:48.311Z,984.25
2023-04-02T04:06:48.311Z,984.26
2023-04-02T04:07:48.252Z,984.32
2023-04-02T04:08:48.246Z,984.32
2023-04-02T04:09:48.240Z,984.32
2023-04-02T04:10:48.462Z,984.41
2023-04-02T04:11:48.215Z,984.42
2023-04-02T04:12:48.225Z,984.44
2023-04-02T04:13:48.185Z,984.45
2023-04-02T04:14:48.202Z,984.51
2023-04-02T04:15:48.199Z,984.60
2023-04-02T04:16:48.214Z,984.59
2023-04-02T04:17:48.191Z,984.60
2023-04-02T04:18:48.167Z,984.62
2023-04-02T04:19:48.139Z,984.67
2023-04-02T04:20:48.150Z,984.65
2023-04-02T04:21:48.109Z,984.68
2023-04-02T04:22:48.120Z,984.70
2023-04-02T04:23:48.091Z,984.73
2023-04-02T04:24:48.097Z,984.73
2023-04-02T04:25:48.068Z,984.75
2023-04-02T04:26:48.107Z,984.80
2023-04-02T04:27:48.073Z,984.77
2023-04-02T04:28:48.056Z,984.83
2023-04-02T04:29:48.020Z,984.86
2023-04-02T04:30:48.066Z,984.84
2023-04-02T04:31:48.068Z,984.86
2023-04-02T04:32:48.052Z,984.89
2023-04-02T04:33:47.996Z,984.89
2023-04-02T04:34:48.000Z,984.92
2023-04-02T04:35:47.999Z,984.90
2023-04-02T04:36:48.028Z,984.93
2023-04-02T04:37:47.943Z,984.98
2023-04-02T04:38:47.947Z,984.99
2023-04-02T04:39:47.936Z,985.01
2023-04-02T04:40:47.945Z,985.04
2023-04-02T04:41:47.907Z,985.03
2023-04-02T04:42:47.916Z,985.09
2023-04-02T04:43:47.925Z,985.14
2023-04-02T04:44:47.879Z,985.17
2023-04-02T04:45:47.963Z,985.15
2023-04-02T04:46:47.866Z,985.22
2023-04-02T04:47:47.934Z,985.23
2023-04-02T04:48:47.835Z,985.26
2023-04-02T04:49:47.819Z,985.24
2023-04-02T04:50:47.827Z,985.29
2023-04-02T04:51:47.813Z,985.30
2023-04-02T04:52:47.796Z,985.36
2023-04-02T04:53:47.823Z,985.39
2023-04-02T04:54:47.788Z,985.41
2023-04-02T04:55:47.796Z,985.48
2023-04-02T04:56:47.790Z,985.47
2023-04-02T04:57:47.706Z,985.51
2023-04-02T04:58:47.694Z,985.48
2023-04-02T04:59:47.668Z,985.54
2023-04-02T05:00:49.978Z,985.54
2023-04-02T05:01:47.735Z,985.56
2023-04-02T05:02:47.731Z,985.57
2023-04-02T05:03:47.677Z,985.63
2023-04-02T05:04:47.687Z,985.67
2023-04-02T05:05:47.656Z,985.68
2023-04-02T05:06:47.684Z,985.68
2023-04-02T05:07:47.632Z,985.70
2023-04-02T05:08:47.651Z,985.71
2023-04-02T05:09:47.616Z,985.79
2023-04-02T05:10:47.609Z,985.74
2023-04-02T05:11:47.581Z,985.77
2023-04-02T05:12:47.621Z,985.81
2023-04-02T05:13:47.615Z,985.80
2023-04-02T05:14:47.550Z,985.84
2023-04-02T05:15:47.630Z,985.87
2023-04-02T05:16:49.205Z,985.88
2023-04-02T05:17:47.582Z,985.86
2023-04-02T05:18:47.621Z,985.90
2023-04-02T05:19:47.514Z,985.91
2023-04-02T05:20:47.528Z,985.94
2023-04-02T05:21:47.480Z,985.97
2023-04-02T05:22:47.500Z,986.01
2023-04-02T05:23:47.460Z,986.02
2023-04-02T05:24:47.496Z,986.03
2023-04-02T05:25:47.440Z,986.09
2023-04-02T05:26:47.451Z,986.05
2023-04-02T05:27:47.416Z,986.03
2023-04-02T05:28:47.432Z,986.09
2023-04-02T05:29:47.455Z,986.19
2023-04-02T05:30:47.459Z,986.15
2023-04-02T05:31:47.442Z,986.16
2023-04-02T05:32:47.360Z,986.21
2023-04-02T05:33:47.364Z,986.28
2023-04-02T05:34:47.411Z,986.28
2023-04-02T05:35:47.400Z,986.31
2023-04-02T05:36:47.371Z,986.28
2023-04-02T05:37:47.311Z,986.31
2023-04-02T05:38:47.345Z,986.36
2023-04-02T05:39:47.261Z,986.35
2023-04-02T05:40:47.299Z,986.43
2023-04-02T05:41:47.236Z,986.42
2023-04-02T05:42:47.258Z,986.43
2023-04-02T05:43:47.215Z,986.47
2023-04-02T05:44:47.260Z,986.48
2023-04-02T05:45:47.236Z,986.47
2023-04-02T05:46:47.302Z,986.54
2023-04-02T05:47:47.251Z,986.53
2023-04-02T05:48:47.237Z,986.55
2023-04-02T05:49:47.242Z,986.56
2023-04-02T05:50:47.158Z,986.56
2023-04-02T05:51:47.120Z,986.61
2023-04-02T05:52:47.211Z,986.64
2023-04-02T05:53:47.154Z,986.68
2023-04-02T05:54:47.163Z,986.66
2023-04-02T05:55:47.159Z,986.69
2023-04-02T05:56:47.198Z,986.70
2023-04-02T05:57:58.961Z,986.72
2023-04-02T05:58:48.212Z,986.71
2023-04-02T05:59:47.103Z,986.72
2023-04-02T06:00:47.098Z,986.75
2023-04-02T06:01:47.153Z,986.77
2023-04-02T06:02:47.063Z,986.79
2023-04-02T06:03:47.037Z,986.79
2023-04-02T06:04:47.018Z,986.84
2023-04-02T06:05:46.992Z,986.82
2023-04-02T06:06:46.973Z,986.84
2023-04-02T06:07:46.950Z,986.92
2023-04-02T06:08:46.993Z,986.94
2023-04-02T06:09:46.960Z,986.95
2023-04-02T06:10:46.951Z,986.91
2023-04-02T06:11:46.931Z,986.99
2023-04-02T06:12:46.935Z,987.05
2023-04-02T06:13:46.894Z,987.01
2023-04-02T06:14:46.898Z,987.01
2023-04-02T06:15:47.879Z,987.05
2023-04-02T06:16:46.923Z,987.06
2023-04-02T06:17:46.923Z,987.09
2023-04-02T06:18:46.854Z,987.15
2023-04-02T06:19:46.834Z,987.14
2023-04-02T06:20:46.852Z,987.19
2023-04-02T06:21:46.809Z,987.19
2023-04-02T06:22:46.845Z,987.26
2023-04-02T06:23:46.813Z,987.25
2023-04-02T06:24:46.858Z,987.28
2023-04-02T06:25:46.781Z,987.29
2023-04-02T06:26:46.791Z,987.28
2023-04-02T06:27:46.766Z,987.32
2023-04-02T06:28:46.770Z,987.38
2023-04-02T06:29:46.751Z,987.41
2023-04-02T06:30:46.834Z,987.38
2023-04-02T06:31:48.863Z,987.42
2023-04-02T06:32:46.758Z,987.47
2023-04-02T06:33:46.687Z,987.50
2023-04-02T06:34:46.721Z,987.50
2023-04-02T06:35:46.783Z,987.50
2023-04-02T06:36:46.709Z,987.56
2023-04-02T06:37:46.657Z,987.56
2023-04-02T06:38:46.694Z,987.56
2023-04-02T06:39:46.627Z,987.60
2023-04-02T06:40:46.663Z,987.61
2023-04-02T06:41:46.634Z,987.61
2023-04-02T06:42:46.660Z,987.63
2023-04-02T06:43:46.612Z,987.67
2023-04-02T06:44:46.582Z,987.69
2023-04-02T06:45:46.602Z,987.69
2023-04-02T06:46:46.572Z,987.74
2023-04-02T06:47:46.624Z,987.77
2023-04-02T06:48:46.548Z,987.80
2023-04-02T06:49:46.569Z,987.78
2023-04-02T06:50:46.520Z,987.78
2023-04-02T06:51:46.530Z,987.84
2023-04-02T06:52:46.513Z,987.81
2023-04-02T06:53:46.515Z,987.85
2023-04-02T06:54:46.501Z,987.86
2023-04-02T06:55:46.512Z,987.89
2023-04-02T06:56:46.458Z,987.95
2023-04-02T06:57:46.463Z,987.97
2023-04-02T06:58:46.472Z,987.94
2023-04-02T06:59:46.449Z,987.98
2023-04-02T07:00:46.448Z,988.04
2023-04-02T07:01:46.494Z,988.01
2023-04-02T07:02:46.499Z,988.07
2023-04-02T07:03:46.414Z,988.07
2023-04-02T07:04:46.412Z,988.07
2023-04-02T07:05:46.373Z,988.14
2023-04-02T07:06:46.357Z,988.14
2023-04-02T07:07:46.379Z,988.16
2023-04-02T07:08:46.347Z,988.16
2023-04-02T07:09:46.368Z,988.18
2023-04-02T07:10:46.313Z,988.20
2023-04-02T07:11:46.321Z,988.23
2023-04-02T07:12:46.288Z,988.26
2023-04-02T07:13:46.290Z,988.34
2023-04-02T07:14:46.279Z,988.30
2023-04-02T07:15:46.309Z,988.30
2023-04-02T07:16:46.275Z,988.37
2023-04-02T07:17:46.300Z,988.34
2023-04-02T07:18:46.232Z,988.42
2023-04-02T07:19:46.785Z,988.45
2023-04-02T07:20:46.197Z,988.43
2023-04-02T07:21:46.212Z,988.45
2023-04-02T07:22:46.203Z,988.48
2023-04-02T07:23:46.196Z,988.52
2023-04-02T07:24:46.157Z,988.55
2023-04-02T07:25:46.192Z,988.55
2023-04-02T07:26:46.209Z,988.60
2023-04-02T07:27:46.148Z,988.69
2023-04-02T07:28:47.083Z,988.64
2023-04-02T07:29:46.165Z,988.66
2023-04-02T07:30:46.129Z,988.70
2023-04-02T07:31:46.216Z,988.74
2023-04-02T07:32:46.115Z,988.72
2023-04-02T07:33:46.099Z,988.73
2023-04-02T07:34:46.065Z,988.75
2023-04-02T07:35:46.263Z,988.79
2023-04-02T07:36:46.046Z,988.85
2023-04-02T07:37:46.053Z,988.83
2023-04-02T07:38:46.029Z,988.88
2023-04-02T07:39:46.046Z,988.87
2023-04-02T07:40:46.010Z,988.90
2023-04-02T07:41:46.081Z,988.91
2023-04-02T07:42:45.982Z,988.91
2023-04-02T07:43:45.991Z,988.97
2023-04-02T07:44:45.963Z,989.00
2023-04-02T07:45:45.965Z,988.96
2023-04-02T07:46:46.004Z,989.03
2023-04-02T07:47:46.031Z,989.04
2023-04-02T07:48:45.920Z,989.06
2023-04-02T07:49:45.939Z,989.05
2023-04-02T07:50:45.903Z,989.07
2023-04-02T07:51:45.921Z,989.08
2023-04-02T07:52:45.919Z,989.16
2023-04-02T07:53:45.894Z,989.16
2023-04-02T07:54:45.853Z,989.15
2023-04-02T07:55:45.847Z,989.19
2023-04-02T07:56:46.064Z,989.22
2023-04-02T07:57:46.867Z,989.23
2023-04-02T07:58:45.808Z,989.24
2023-04-02T07:59:45.811Z,989.24
2023-04-02T08:00:45.803Z,989.22
2023-04-02T08:01:45.842Z,989.26
2023-04-02T08:02:45.844Z,989.29
2023-04-02T08:03:45.887Z,989.35
2023-04-02T08:04:45.749Z,989.35
2023-04-02T08:05:45.762Z,989.43
2023-04-02T08:06:45.759Z,989.34
2023-04-02T08:07:45.753Z,989.40
2023-04-02T08:08:45.738Z,989.39
2023-04-02T08:09:45.713Z,989.40
2023-04-02T08:10:45.680Z,989.43
2023-04-02T08:11:45.704Z,989.44
2023-04-02T08:13:42.443Z,989.53
2023-04-02T08:14:42.412Z,989.54
2023-04-02T08:15:42.432Z,989.57
2023-04-02T08:16:42.434Z,989.54
2023-04-02T08:17:42.492Z,989.64
2023-04-02T08:18:42.423Z,989.60
2023-04-02T08:19:54.124Z,989.62
2023-04-02T08:20:43.348Z,989.65
2023-04-02T08:21:42.362Z,989.63
2023-04-02T08:22:42.357Z,989.71
2023-04-02T08:23:42.342Z,989.72
2023-04-02T08:24:42.310Z,989.71
2023-04-02T08:25:42.309Z,989.75
2023-04-02T08:26:43.953Z,989.78
2023-04-02T08:27:42.318Z,989.78
2023-04-02T08:28:42.310Z,989.79
2023-04-02T08:29:42.276Z,989.78
2023-04-02T08:30:42.298Z,989.82
2023-04-02T08:31:42.296Z,989.83
2023-04-02T08:32:42.244Z,989.84
2023-04-02T08:33:42.271Z,989.87
2023-04-02T08:34:42.234Z,989.89
2023-04-02T08:35:42.256Z,989.93
2023-04-02T08:36:42.202Z,989.95
2023-04-02T08:37:42.188Z,989.99
2023-04-02T08:38:42.192Z,989.96
2023-04-02T08:39:42.193Z,990.01
2023-04-02T08:40:42.137Z,990.07
2023-04-02T08:41:42.151Z,990.03
2023-04-02T08:42:42.124Z,990.09
2023-04-02T08:43:42.157Z,990.11
2023-04-02T08:44:42.107Z,990.15
2023-04-02T08:45:42.377Z,990.09
2023-04-02T08:46:42.116Z,990.15
2023-04-02T08:47:42.142Z,990.15
2023-04-02T08:48:42.648Z,990.20
2023-04-02T08:49:42.069Z,990.20
2023-04-02T08:50:42.053Z,990.20
2023-04-02T08:51:42.100Z,990.24
2023-04-02T08:52:42.025Z,990.23
2023-04-02T08:53:42.036Z,990.24
2023-04-02T08:54:42.057Z,990.21
2023-04-02T08:55:42.077Z,990.25
2023-04-02T08:56:42.027Z,990.22
2023-04-02T08:57:41.979Z,990.37
2023-04-02T08:58:41.950Z,990.30
2023-04-02T08:59:41.965Z,990.35
2023-04-02T09:00:42.290Z,990.38
2023-04-02T09:01:42.011Z,990.32
2023-04-02T09:02:41.963Z,990.33
2023-04-02T09:03:41.929Z,990.35
2023-04-02T09:04:42.024Z,990.41
2023-04-02T09:05:41.908Z,990.42
2023-04-02T09:06:41.893Z,990.43
2023-04-02T09:07:41.876Z,990.46
2023-04-02T09:08:41.849Z,990.45
2023-04-02T09:09:41.860Z,990.52
2023-04-02T09:10:41.843Z,990.50
2023-04-02T09:11:41.866Z,990.53
2023-04-02T09:12:42.397Z,990.53
2023-04-02T09:13:41.835Z,990.56
2023-04-02T09:14:41.821Z,990.56
2023-04-02T09:15:41.825Z,990.58
2023-04-02T09:16:41.811Z,990.59
2023-04-02T09:17:53.229Z,990.62
2023-04-02T09:18:42.854Z,990.58
2023-04-02T09:19:41.769Z,990.66
2023-04-02T09:20:41.728Z,990.68
2023-04-02T09:21:41.731Z,990.70
2023-04-02T09:22:42.316Z,990.75
2023-04-02T09:23:41.706Z,990.74
2023-04-02T09:24:41.687Z,990.77
2023-04-02T09:25:42.192Z,990.78
2023-04-02T09:26:46.438Z,990.81
2023-04-02T09:27:41.691Z,990.83
2023-04-02T09:28:41.659Z,990.92
2023-04-02T09:29:41.658Z,990.87
2023-04-02T09:30:41.629Z,990.93
2023-04-02T09:31:41.710Z,990.92
2023-04-02T09:32:41.647Z,990.93
2023-04-02T09:33:43.293Z,990.96
2023-04-02T09:34:41.593Z,990.95
2023-04-02T09:35:41.770Z,990.97
2023-04-02T09:36:41.568Z,991.04
2023-04-02T09:37:41.747Z,991.00
2023-04-02T09:38:42.381Z,991.03
2023-04-02T09:39:41.547Z,991.04
2023-04-02T09:40:41.524Z,991.07
2023-04-02T09:41:41.541Z,991.11
2023-04-02T09:42:41.806Z,991.11
2023-04-02T09:43:41.550Z,991.18
2023-04-02T09:44:41.508Z,991.14
2023-04-02T09:45:41.501Z,991.23
2023-04-02T09:46:41.488Z,991.20
2023-04-02T09:47:42.412Z,991.23
2023-04-02T09:48:41.469Z,991.22
2023-04-02T09:49:42.137Z,991.25
2023-04-02T09:50:41.446Z,991.24
2023-04-02T09:51:41.450Z,991.28
2023-04-02T09:52:41.444Z,991.30
2023-04-02T09:53:42.774Z,991.30
2023-04-02T09:54:41.472Z,991.38
2023-04-02T09:55:41.422Z,991.34
2023-04-02T09:56:41.450Z,991.34
2023-04-02T09:57:41.356Z,991.37
2023-04-02T09:58:41.342Z,991.40
2023-04-02T09:59:41.366Z,991.35
2023-04-02T10:00:42.203Z,991.38
2023-04-02T10:01:41.372Z,991.43
2023-04-02T10:02:41.322Z,991.43
2023-04-02T10:03:41.304Z,991.41
2023-04-02T10:04:41.418Z,991.46
2023-04-02T10:05:41.906Z,991.47
2023-04-02T10:06:41.261Z,991.48
2023-04-02T10:07:41.310Z,991.50
2023-04-02T10:08:41.248Z,991.52
2023-04-02T10:09:41.274Z,991.57
2023-04-02T10:10:41.237Z,991.49
2023-04-02T10:12:41.212Z,991.59
2023-04-02T10:13:41.285Z,991.58
2023-04-02T10:14:41.187Z,991.59
2023-04-02T10:15:41.336Z,991.63
2023-04-02T10:16:41.176Z,991.64
2023-04-02T10:17:41.196Z,991.65
2023-04-02T10:18:41.137Z,991.68
2023-04-02T10:19:41.149Z,991.66
2023-04-02T10:20:50.447Z,991.69
2023-04-02T10:21:42.114Z,991.72
2023-04-02T10:22:41.078Z,991.71
2023-04-02T10:23:41.109Z,991.72
2023-04-02T10:24:41.079Z,991.75
2023-04-02T10:25:42.750Z,991.74
2023-04-02T10:26:41.218Z,991.78
2023-04-02T10:27:41.061Z,991.76
2023-04-02T10:28:41.034Z,991.77
2023-04-02T10:29:41.059Z,991.80
2023-04-02T10:30:41.078Z,991.84
2023-04-02T10:31:40.994Z,991.87
2023-04-02T10:32:41.027Z,991.81
2023-04-02T10:33:40.981Z,991.90
2023-04-02T10:34:42.503Z,991.82
2023-04-02T10:35:41.395Z,991.89
2023-04-02T10:36:40.965Z,991.94
2023-04-02T10:37:40.970Z,991.94
2023-04-02T10:38:40.948Z,991.93
2023-04-02T10:39:40.927Z,992.01
2023-04-02T10:40:40.933Z,991.92
2023-04-02T10:41:41.323Z,991.96
2023-04-02T10:42:40.909Z,991.98
2023-04-02T10:43:40.919Z,991.96
2023-04-02T10:44:40.943Z,992.00
2023-04-02T10:45:40.859Z,992.05
2023-04-02T10:46:40.926Z,992.10
2023-04-02T10:47:40.888Z,992.04
2023-04-02T10:48:40.826Z,992.09
2023-04-02T10:49:41.001Z,992.04
2023-04-02T10:50:40.844Z,992.08
2023-04-02T10:51:40.842Z,992.04
2023-04-02T10:52:40.798Z,992.10
2023-04-02T10:53:40.803Z,992.13
2023-04-02T10:54:40.776Z,992.18
2023-04-02T10:55:40.770Z,992.24
2023-04-02T10:56:50.766Z,992.20
2023-04-02T10:57:41.972Z,992.24
2023-04-02T10:58:40.741Z,992.30
2023-04-02T10:59:40.717Z,992.22
2023-04-02T11:00:40.715Z,992.31
2023-04-02T11:01:40.742Z,992.28
2023-04-02T11:02:40.891Z,992.28
2023-04-02T11:03:40.875Z,992.32
2023-04-02T11:04:40.678Z,992.33
2023-04-02T11:05:40.651Z,992.35
2023-04-02T11:06:40.680Z,992.32
2023-04-02T11:07:40.652Z,992.41
2023-04-02T11:08:40.652Z,992.39
2023-04-02T11:09:40.600Z,992.41
2023-04-02T11:10:40.634Z,992.42
2023-04-02T11:11:40.625Z,992.44
2023-04-02T11:12:42.031Z,992.46
2023-04-02T11:13:40.593Z,992.43
2023-04-02T11:14:40.569Z,992.47
2023-04-02T11:15:40.563Z,992.47
2023-04-02T11:16:43.915Z,992.51
2023-04-02T11:17:40.571Z,992.54
2023-04-02T11:18:40.587Z,992.57
2023-04-02T11:19:40.506Z,992.57
2023-04-02T11:20:40.507Z,992.60
2023-04-02T11:21:55.015Z,992.63
2023-04-02T11:22:41.801Z,992.64
2023-04-02T11:23:40.460Z,992.66
2023-04-02T11:24:40.484Z,992.69
2023-04-02T11:25:40.437Z,992.72
2023-04-02T11:26:40.514Z,992.76
2023-04-02T11:27:40.432Z,992.76
2023-04-02T11:28:40.434Z,992.80
2023-04-02T11:29:40.424Z,992.76
2023-04-02T11:30:40.452Z,992.78
2023-04-02T11:31:40.415Z,992.89
2023-04-02T11:32:40.458Z,992.85
2023-04-02T11:33:43.390Z,992.87
2023-04-02T11:34:41.406Z,992.85
2023-04-02T11:35:40.639Z,992.91
2023-04-02T11:36:40.538Z,992.89
2023-04-02T11:37:40.309Z,992.96
2023-04-02T11:38:40.330Z,992.94
2023-04-02T11:39:40.329Z,992.96
2023-04-02T11:40:40.319Z,993.04
2023-04-02T11:41:40.770Z,993.01
2023-04-02T11:42:40.280Z,993.01
2023-04-02T11:43:40.252Z,993.06
2023-04-02T11:44:40.282Z,993.03
2023-04-02T11:45:50.061Z,993.08
2023-04-02T11:46:41.351Z,993.11
2023-04-02T11:47:40.236Z,993.09
2023-04-02T11:48:40.217Z,993.12
2023-04-02T11:49:40.303Z,993.13
2023-04-02T11:50:40.202Z,993.14
2023-04-02T11:51:40.193Z,993.16
2023-04-02T11:52:40.212Z,993.19
2023-04-02T11:53:40.148Z,993.17
2023-04-02T11:54:40.155Z,993.17
2023-04-02T11:55:40.167Z,993.17
2023-04-02T11:56:40.200Z,993.19
2023-04-02T11:57:40.389Z,993.19
2023-04-02T11:58:40.505Z,993.20
2023-04-02T11:59:40.100Z,993.23
2023-04-02T12:00:40.102Z,993.29
2023-04-02T12:01:40.156Z,993.32
2023-04-02T12:02:40.211Z,993.30
2023-04-02T12:03:40.072Z,993.33
2023-04-02T12:04:40.053Z,993.32
2023-04-02T12:05:40.181Z,993.29
2023-04-02T12:06:40.058Z,993.35
2023-04-02T12:07:40.672Z,993.32
2023-04-02T12:08:54.372Z,993.38
2023-04-02T12:09:40.989Z,993.40
2023-04-02T12:10:39.989Z,993.37
2023-04-02T12:11:40.032Z,993.44
2023-04-02T12:12:39.976Z,993.44
2023-04-02T12:13:40.013Z,993.43
2023-04-02T12:14:40.003Z,993.39
2023-04-02T12:15:39.930Z,993.49
2023-04-02T12:16:39.964Z,993.44
2023-04-02T12:17:39.908Z,993.48
2023-04-02T12:18:39.904Z,993.42
2023-04-02T12:19:39.878Z,993.53
2023-04-02T12:20:39.905Z,993.50
2023-04-02T12:21:39.865Z,993.53
2023-04-02T12:22:39.863Z,993.55
2023-04-02T12:23:39.853Z,993.54
2023-04-02T12:24:39.917Z,993.53
2023-04-02T12:25:39.833Z,993.57
2023-04-02T12:26:39.865Z,993.57
2023-04-02T12:27:39.801Z,993.60
2023-04-02T12:28:39.824Z,993.63
2023-04-02T12:29:40.266Z,993.64
2023-04-02T12:30:39.827Z,993.69
2023-04-02T12:31:39.761Z,993.66